createdAt,value
2017-12-14T00:03:52.314Z,1.20
2017-12-14T00:08:53.789Z,1.50
2017-12-14T00:13:55.289Z,1.20
2017-12-14T00:18:57.573Z,5.83
2017-12-14T00:23:59.828Z,0.80
2017-12-14T00:29:01.372Z,0.80
2017-12-14T00:34:02.873Z,0.70
2017-12-14T00:39:04.512Z,1.00
2017-12-14T00:44:06.020Z,1.23
2017-12-14T00:49:08.280Z,1.50
2017-12-14T00:54:09.837Z,1.73
2017-12-14T00:59:11.367Z,3.33
2017-12-14T01:04:12.862Z,1.20
2017-12-14T01:09:14.316Z,1.30
2017-12-14T01:14:15.903Z,1.40
2017-12-14T01:19:17.416Z,1.40
2017-12-14T01:24:18.938Z,2.40
2017-12-14T01:29:20.452Z,1.83
2017-12-14T01:34:21.989Z,1.63
2017-12-14T01:39:23.505Z,1.33
2017-12-14T01:44:24.985Z,1.23
2017-12-14T01:49:26.696Z,2.67
2017-12-14T01:54:29.071Z,0.97
2017-12-14T01:59:30.592Z,0.73
2017-12-14T02:04:32.157Z,2.43
2017-12-14T02:09:33.676Z,0.60
2017-12-14T02:14:35.270Z,1.70
2017-12-14T02:19:37.535Z,2.20
2017-12-14T02:24:39.132Z,0.83
2017-12-14T02:29:41.412Z,1.47
2017-12-14T02:34:43.690Z,1.50
2017-12-14T02:39:45.963Z,4.10
2017-12-14T02:44:47.523Z,2.10
2017-12-14T02:49:49.012Z,0.97
2017-12-14T02:54:51.296Z,1.00
2017-12-14T02:59:53.588Z,5.27
2017-12-14T03:04:55.778Z,1.33
2017-12-14T03:09:57.342Z,2.83
2017-12-14T03:14:59.546Z,1.33
2017-12-14T03:20:00.998Z,2.90
2017-12-14T03:25:02.543Z,2.40
2017-12-14T03:30:04.826Z,3.77
2017-12-14T03:35:07.012Z,3.90
2017-12-14T03:40:09.244Z,2.83
2017-12-14T03:45:10.671Z,5.20
2017-12-14T03:50:12.111Z,1.93
2017-12-14T03:55:13.548Z,2.77
2017-12-14T04:00:15.057Z,1.07
2017-12-14T04:05:17.457Z,1.10
2017-12-14T04:10:19.712Z,0.90
2017-12-14T04:15:21.253Z,1.67
2017-12-14T04:20:22.740Z,1.73
2017-12-14T04:25:24.244Z,0.87
2017-12-14T04:30:26.525Z,1.73
2017-12-14T04:35:28.861Z,0.70
2017-12-14T04:40:30.414Z,1.63
2017-12-14T04:45:31.984Z,1.07
2017-12-14T04:50:33.568Z,4.07
2017-12-14T04:55:35.057Z,3.50
2017-12-14T05:00:36.768Z,2.30
2017-12-14T05:05:38.280Z,2.00
2017-12-14T05:10:39.792Z,2.57
2017-12-14T05:15:42.014Z,0.70
2017-12-14T05:20:43.501Z,1.80
2017-12-14T05:25:45.208Z,1.03
2017-12-14T05:30:47.494Z,0.70
2017-12-14T05:35:49.744Z,4.97
2017-12-14T05:40:51.260Z,3.93
2017-12-14T05:45:52.735Z,2.03
2017-12-14T05:50:54.274Z,2.27
2017-12-14T05:55:56.550Z,3.43
2017-12-14T06:00:58.785Z,4.63
2017-12-14T06:06:00.421Z,6.73
2017-12-14T06:11:02.725Z,5.30
2017-12-14T06:16:04.395Z,2.63
2017-12-14T06:21:05.919Z,4.20
2017-12-14T06:26:07.423Z,3.30
2017-12-14T06:31:08.926Z,7.30
2017-12-14T06:36:10.432Z,4.47
2017-12-14T06:41:12.658Z,4.27
2017-12-14T06:46:14.173Z,3.97
2017-12-14T06:51:15.713Z,11.33
2017-12-14T06:56:17.244Z,2.67
2017-12-14T07:01:18.760Z,7.33
2017-12-14T07:06:20.268Z,12.20
2017-12-14T07:11:22.476Z,13.37
2017-12-14T07:16:24.012Z,11.67
2017-12-14T07:21:26.272Z,8.13
2017-12-14T07:26:27.791Z,9.23
2017-12-14T07:31:29.245Z,9.20
2017-12-14T07:36:30.769Z,7.67
2017-12-14T07:41:32.360Z,5.60
2017-12-14T07:46:34.604Z,8.83
2017-12-14T07:51:42.931Z,12.57
2017-12-14T07:56:44.410Z,14.00
2017-12-14T08:01:46.043Z,6.80
2017-12-14T08:06:47.600Z,6.07
2017-12-14T08:11:49.072Z,3.80
2017-12-14T08:16:50.573Z,10.63
2017-12-14T08:21:52.066Z,12.53
2017-12-14T08:26:53.568Z,8.27
2017-12-14T08:31:55.073Z,6.83
2017-12-14T08:36:56.633Z,9.93
2017-12-14T08:41:58.141Z,8.17
2017-12-14T08:47:00.416Z,9.87
2017-12-14T08:52:01.944Z,8.30
2017-12-14T08:57:03.454Z,9.50
2017-12-14T09:02:05.705Z,7.37
2017-12-14T09:07:07.226Z,6.90
2017-12-14T09:12:09.493Z,12.83
2017-12-14T09:17:11.765Z,9.10
2017-12-14T09:22:13.292Z,6.43
2017-12-14T09:27:14.808Z,7.93
2017-12-14T09:32:16.349Z,13.93
2017-12-14T09:37:17.870Z,12.10
2017-12-14T09:42:19.449Z,7.33
2017-12-14T09:47:21.011Z,11.80
2017-12-14T09:52:22.500Z,14.43
2017-12-14T09:57:24.011Z,6.13
2017-12-14T10:02:26.223Z,7.97
2017-12-14T10:07:27.700Z,9.00
2017-12-14T10:12:29.193Z,9.90
2017-12-14T10:17:30.697Z,7.73
2017-12-14T10:22:32.224Z,20.03
2017-12-14T10:27:33.873Z,13.33
2017-12-14T10:32:35.443Z,14.33
2017-12-14T10:37:36.934Z,7.00
2017-12-14T10:42:38.453Z,15.40
2017-12-14T10:47:40.640Z,17.37
2017-12-14T10:52:42.822Z,17.17
2017-12-14T10:57:45.077Z,14.77
2017-12-14T11:02:46.561Z,16.90
2017-12-14T11:07:48.865Z,20.83
2017-12-14T11:12:50.392Z,20.37
2017-12-14T11:17:51.891Z,16.10
2017-12-14T11:22:54.163Z,15.07
2017-12-14T11:27:56.601Z,23.30
2017-12-14T11:32:58.097Z,16.50
2017-12-14T11:37:59.661Z,9.23
2017-12-14T11:43:01.216Z,10.70
2017-12-14T11:48:02.807Z,11.47
2017-12-14T11:53:05.110Z,13.07
2017-12-14T11:58:07.397Z,15.30
2017-12-14T12:03:09.669Z,12.17
2017-12-14T12:08:11.194Z,14.53
2017-12-14T12:13:12.692Z,21.30
2017-12-14T12:18:15.053Z,8.40
2017-12-14T12:23:16.539Z,10.10
2017-12-14T12:28:18.077Z,13.07
2017-12-14T12:33:19.612Z,12.27
2017-12-14T12:38:22.613Z,8.90
2017-12-14T12:43:24.897Z,10.43
2017-12-14T12:48:27.137Z,11.33
2017-12-14T12:53:28.677Z,14.13
2017-12-14T12:58:30.210Z,16.83
2017-12-14T13:03:32.514Z,15.87
2017-12-14T13:08:34.098Z,13.67
2017-12-14T13:13:35.639Z,9.33
2017-12-14T13:18:37.931Z,15.63
2017-12-14T13:23:39.497Z,12.20
2017-12-14T13:28:41.809Z,12.67
2017-12-14T13:33:43.344Z,19.27
2017-12-14T13:38:45.613Z,13.73
2017-12-14T13:43:47.193Z,14.83
2017-12-14T13:48:49.481Z,15.33
2017-12-14T13:53:51.758Z,14.80
2017-12-14T13:58:54.012Z,13.97
2017-12-14T14:03:55.544Z,15.17
2017-12-14T14:08:57.117Z,13.57
2017-12-14T14:13:58.683Z,14.53
2017-12-14T14:19:00.250Z,11.70
2017-12-14T14:24:01.886Z,16.23
2017-12-14T14:29:04.178Z,13.73
2017-12-14T14:34:06.427Z,12.00
2017-12-14T14:39:08.013Z,18.07
2017-12-14T14:44:09.542Z,13.97
2017-12-14T14:49:11.078Z,6.97
2017-12-14T14:54:12.697Z,12.27
2017-12-14T14:59:14.235Z,15.33
2017-12-14T15:04:15.784Z,21.27
2017-12-14T15:09:17.357Z,10.57
2017-12-14T15:14:18.986Z,8.70
2017-12-14T15:19:20.547Z,16.80
2017-12-14T15:24:22.073Z,10.17
2017-12-14T15:29:30.497Z,14.80
2017-12-14T15:34:32.059Z,11.73
2017-12-14T15:39:33.645Z,7.70
2017-12-14T15:44:35.230Z,15.13
2017-12-14T15:49:36.732Z,9.00
2017-12-14T15:54:38.302Z,12.80
2017-12-14T15:59:40.552Z,15.07
2017-12-14T16:04:42.093Z,11.43
2017-12-14T16:09:43.673Z,8.37
2017-12-14T16:14:45.224Z,8.80
2017-12-14T16:19:46.710Z,14.23
2017-12-14T16:24:48.244Z,19.20
2017-12-14T16:29:49.820Z,15.90
2017-12-14T16:34:51.408Z,11.93
2017-12-14T16:39:53.004Z,15.10
2017-12-14T16:44:54.568Z,20.43
2017-12-14T16:49:56.142Z,33.07
2017-12-14T16:54:57.684Z,24.30
2017-12-14T16:59:59.312Z,27.10
2017-12-14T17:05:01.590Z,22.17
2017-12-14T17:10:03.879Z,19.90
2017-12-14T17:15:06.162Z,26.33
2017-12-14T17:20:08.457Z,24.53
2017-12-14T17:25:10.764Z,22.67
2017-12-14T17:30:12.298Z,25.93
2017-12-14T17:35:14.593Z,24.63
2017-12-14T17:40:16.907Z,76.20
2017-12-14T17:45:18.448Z,25.33
2017-12-14T17:50:20.758Z,17.63
2017-12-14T17:55:22.318Z,18.13
2017-12-14T18:00:23.983Z,25.20
2017-12-14T18:05:26.346Z,16.13
2017-12-14T18:10:27.875Z,32.67
2017-12-14T18:15:29.453Z,17.63
2017-12-14T18:20:31.102Z,25.50
2017-12-14T18:25:32.694Z,21.30
2017-12-14T18:30:34.283Z,49.70
2017-12-14T18:35:35.727Z,25.43
2017-12-14T18:40:37.281Z,23.73
2017-12-14T18:45:38.812Z,31.73
2017-12-14T18:50:40.367Z,15.63
2017-12-14T18:55:42.737Z,28.97
2017-12-14T19:00:44.256Z,27.47
2017-12-14T19:05:45.832Z,28.90
2017-12-14T19:10:47.568Z,12.40
2017-12-14T19:15:49.864Z,11.27
2017-12-14T19:20:51.428Z,7.80
2017-12-14T19:25:53.720Z,14.77
2017-12-14T19:30:55.237Z,15.07
2017-12-14T19:35:56.763Z,12.50
2017-12-14T19:40:58.319Z,6.63
2017-12-14T19:46:00.023Z,4.73
2017-12-14T19:51:01.932Z,7.60
2017-12-14T19:56:03.485Z,8.17
2017-12-14T20:01:05.045Z,5.73
2017-12-14T20:06:06.581Z,3.37
2017-12-14T20:11:08.152Z,4.07
2017-12-14T20:16:09.809Z,8.50
2017-12-14T20:21:11.464Z,7.47
2017-12-14T20:26:13.869Z,5.57
2017-12-14T20:31:15.426Z,4.50
2017-12-14T20:36:17.698Z,4.73
2017-12-14T20:41:19.375Z,8.87
2017-12-14T20:46:21.653Z,5.53
2017-12-14T20:51:23.256Z,4.97
2017-12-14T20:56:24.781Z,6.13
2017-12-14T21:01:26.325Z,5.03
2017-12-14T21:06:27.875Z,6.33
2017-12-14T21:11:36.490Z,5.87
2017-12-14T21:16:38.062Z,2.00
2017-12-14T21:21:39.600Z,2.97
2017-12-14T21:26:41.928Z,3.63
2017-12-14T21:31:43.485Z,3.67
2017-12-14T21:36:45.048Z,2.00
2017-12-14T21:41:46.614Z,2.40
2017-12-14T21:46:48.184Z,4.03
2017-12-14T21:51:49.752Z,5.23
2017-12-14T21:56:51.408Z,5.03
2017-12-14T22:01:53.002Z,3.40
2017-12-14T22:06:54.485Z,3.90
2017-12-14T22:11:56.007Z,7.87
2017-12-14T22:16:58.336Z,10.27
2017-12-14T22:21:59.849Z,11.90
2017-12-14T22:27:02.259Z,10.20
2017-12-14T22:32:03.839Z,9.37
2017-12-14T22:37:05.398Z,15.97
2017-12-14T22:42:06.948Z,15.00
2017-12-14T22:47:09.227Z,20.97
2017-12-14T22:52:11.443Z,19.67
2017-12-14T22:57:13.017Z,15.20
2017-12-14T23:02:14.576Z,12.77
2017-12-14T23:07:16.334Z,19.53
2017-12-14T23:12:18.630Z,20.70
2017-12-14T23:17:20.177Z,23.90
2017-12-14T23:22:22.416Z,19.43
2017-12-14T23:27:24.003Z,19.20
2017-12-14T23:32:25.526Z,18.13
2017-12-14T23:37:27.055Z,17.97
2017-12-14T23:42:28.577Z,19.97
2017-12-14T23:47:30.205Z,18.93
2017-12-14T23:52:32.453Z,25.03
2017-12-14T23:57:33.980Z,15.37
